Volzhskiy, Russia
Current Conditions -  °F | °C
As of 7:00 PM on Sunday 23 Nov 2014 (Local Time) from URWW Reporting Station
Clear Clear  
Wind Chill: 15°   Ceiling: Unl
Heat Index: 27°   Visibility: 6mi
Dew Point: 21°   Wind: 13mph
Humidity: 80%   Direction: 10°N
Pressure: 30.27"   Gusts: NA
Location:  48.79°N, 44.77°E
Report Text: URWW 231600Z 01006MPS CAVOK M03/M06 Q1025 NOSIG RMK 29CLRD70
Loading
Personal Weather Stations






























Interactive Weather Map New forecast layout! Learn more

10-Day Weather Forecast

Advertisements
Track Severe Weather on mobile